To NAV CANADA Home Page Login to a new session Search on AWWS site Feedback and Comments Disclaimer Vers la page française équivalente Tips FAQ What's new on the site To the Forecasts and Observations / NOTAM section To "File a Flight Plan" website Publications and other links Update of the User's profile FIC Telephone Numbers My Weather Data Folder Route Weather Data Regional Weather Data Local Weather Data To the Forecasts and Observations / NOTAM section
Request Generated 12/10/2016 at 16:31:54 UTC . Weather information available at that time is displayed.

METAR/TAF

BAKER LAKE/NU    

METAR CYBK 101600Z 26014KT 20SM DRSN FEW040 SCT070 M25/M29 A2973 RMK
SC1AC2 SLP072=
METAR CYBK 101500Z 24009G15KT 20SM DRSN FEW070 FEW100 M25/M29 A2976
RMK AC1AC1 SLP083=
METAR CYBK 101400Z CCA 24009G15KT 200V270 15SM DRSN FEW070 FEW100
M24/M27 A2978 RMK AC1AC1 SLP088=
METAR CYBK 101400Z 24009G15KT 200V270 15SM DRSN FEW100 M24/M27 A2978
RMK AC2 SLP088=

TAF CYBK 101138Z 1012/1024 24012KT P6SM SCT080
RMK NXT FCST BY 101800Z=
Your time UTC time
Weather data provided by Environment Canada and NAV CANADA